Utica, Indiana
Current Conditions -  °F | °C
As of 5:53 PM on Friday 28 Nov 2014 (Local Time) from KLOU Reporting Station
Clear Clear  
Wind Chill: 32°   Ceiling: Unl
Heat Index: 37°   Visibility: 10mi
Dew Point: 20°   Wind: 7mph
Humidity: 50%   Direction: 150°SSE
Pressure: 30.18"   Gusts: NA
Location:  38.3363°N, 85.6984°W
Report Text: KLOU 282253Z 15006KT 10SM CLR 03/M07 A3018 RMK AO2 SLP225 T00281067
Loading
Personal Weather Stations






























Interactive Weather Map New forecast layout! Learn more

10-Day Weather Forecast

Advertisements
Track Severe Weather on mobile